Terminal Aerodrome Forecast
Issued by NWS

Home | Current Version | Previous Version | Text Only | Print | Product List | Glossary On
Versions: 1 2 3 4 5 6 7 8 9 10 11 12 13 14 15 16 17 18
187
FTUS43 KJKL 242337
TAFSME
TAF
KSME 242337Z 2500/2524 19009KT P6SM BKN080
     FM250100 20009G20KT 5SM -TSRA BKN070CB
     FM250400 20009KT 3SM SHRA VCTS OVC090CB
     FM250500 27011G20KT 3SM SHRA OVC050
     FM251500 27014KT P6SM BKN040=

USA.gov is the U.S. government's official web portal to all federal, state and local government web resources and services.